Time;durP1;ratioP1;P1;durP2;ratioP2;P2;SDS_P1;SDS_P2;PMS_P1;PMS_P2;Temp;Humidity;BMP_temperature;BMP_pressure;BME280_temperature;BME280_humidity;BME280_pressure;Samples;Min_cycle;Max_cycle;Signal;HPM_P1;HPM_P2
2022/01/11 00:00:21;;;;;;;294.90;28.35;;;3.50;98.70;;;;;;5066840;28;20037;-70
2022/01/11 00:02:48;;;;;;;259.95;26.70;;;3.50;98.60;;;;;;5068482;28;20502;-70
2022/01/11 00:05:29;;;;;;;250.98;27.08;;;3.40;98.60;;;;;;5069459;28;20085;-70
2022/01/11 00:07:55;;;;;;;;;;;3.40;98.60;;;;;;5058605;28;20032;-70
2022/01/11 00:10:27;;;;;;;298.40;28.63;;;3.30;98.60;;;;;;5062534;28;19908;-70
2022/01/11 00:12:54;;;;;;;325.02;28.75;;;3.30;98.70;;;;;;5066221;28;20033;-70
2022/01/11 00:15:20;;;;;;;252.68;26.98;;;3.30;98.70;;;;;;5066107;28;20100;-70
2022/01/11 00:17:51;;;;;;;323.08;26.00;;;3.30;98.70;;;;;;5064183;28;20137;-70
2022/01/11 00:20:19;;;;;;;300.23;26.85;;;3.30;98.70;;;;;;5065225;28;20095;-70
2022/01/11 00:24:28;;;;;;;405.13;31.13;;;3.30;98.70;;;;;;5069491;28;20028;-70
2022/01/11 00:25:41;;;;;;;385.92;29.15;;;3.40;98.80;;;;;;5067985;28;20435;-70
2022/01/11 00:28:09;;;;;;;326.58;27.17;;;3.40;98.80;;;;;;5058445;28;20076;-70
2022/01/11 00:30:37;;;;;;;269.30;28.02;;;3.40;98.70;;;;;;5069897;28;20039;-70
2022/01/11 00:33:08;;;;;;;241.80;26.98;;;3.30;98.70;;;;;;5068420;28;20016;-70
2022/01/11 00:35:45;;;;;;;308.25;27.85;;;3.30;98.80;;;;;;5067523;28;20116;-70
2022/01/11 00:38:16;;;;;;;289.38;27.30;;;3.30;98.80;;;;;;5056924;28;20028;-70
2022/01/11 00:40:49;;;;;;;288.83;28.00;;;3.30;98.80;;;;;;5055336;28;20029;-70
2022/01/11 00:43:17;;;;;;;341.88;28.73;;;3.30;98.80;;;;;;5063601;28;20032;-70
2022/01/11 00:45:43;;;;;;;239.63;25.60;;;3.30;98.80;;;;;;5067799;28;20032;-70
2022/01/11 00:48:08;;;;;;;259.98;27.05;;;3.30;98.80;;;;;;5069479;28;20459;-70
2022/01/11 00:50:36;;;;;;;263.63;26.92;;;3.30;98.80;;;;;;5067921;28;20521;-70
2022/01/11 00:53:02;;;;;;;370.58;27.80;;;3.30;98.80;;;;;;5068693;28;20074;-70
2022/01/11 00:55:28;;;;;;;324.73;28.00;;;3.30;98.80;;;;;;5061998;28;20112;-70
2022/01/11 00:57:54;;;;;;;316.95;27.98;;;3.30;98.80;;;;;;5057105;28;20434;-70
2022/01/11 01:00:19;;;;;;;295.95;27.80;;;3.20;98.80;;;;;;5063482;28;20028;-70
2022/01/11 01:02:45;;;;;;;317.10;28.13;;;3.20;98.80;;;;;;5066057;28;20063;-70
2022/01/11 01:05:10;;;;;;;224.77;25.83;;;3.20;98.80;;;;;;5067624;28;20060;-70
2022/01/11 01:07:36;;;;;;;168.35;24.33;;;3.20;98.80;;;;;;5068316;28;20020;-70
2022/01/11 01:10:08;;;;;;;223.77;27.60;;;3.20;98.80;;;;;;5060432;28;20512;-70
2022/01/11 01:12:34;;;;;;;235.02;25.60;;;3.10;98.80;;;;;;5060439;28;20032;-70
2022/01/11 01:15:00;;;;;;;231.55;26.95;;;3.10;98.80;;;;;;5065017;28;20039;-70
2022/01/11 01:17:26;;;;;;;212.35;26.80;;;3.10;98.80;;;;;;5064494;28;20027;-70
2022/01/11 01:19:52;;;;;;;180.63;25.77;;;3.10;98.80;;;;;;5067749;28;20025;-70
2022/01/11 01:22:18;;;;;;;203.32;25.88;;;3.10;98.80;;;;;;5062913;28;20040;-70
2022/01/11 01:24:44;;;;;;;150.13;23.92;;;3.10;98.80;;;;;;5062421;28;20025;-70
2022/01/11 01:27:09;;;;;;;219.98;27.00;;;3.00;98.80;;;;;;5064362;28;20025;-70
2022/01/11 01:29:35;;;;;;;221.80;26.98;;;3.10;98.80;;;;;;5054724;28;20108;-70
2022/01/11 01:32:01;;;;;;;175.60;27.27;;;3.10;98.90;;;;;;5062622;28;20025;-70
2022/01/11 01:34:27;;;;;;;253.80;27.92;;;3.10;98.90;;;;;;5068574;28;20460;-70
2022/01/11 01:36:53;;;;;;;225.70;28.00;;;3.10;98.90;;;;;;5062944;28;20543;-70
2022/01/11 01:39:19;;;;;;;159.90;25.60;;;3.10;98.90;;;;;;5071637;28;20443;-70
2022/01/11 01:41:47;;;;;;;175.75;26.92;;;3.10;98.90;;;;;;5070924;28;20131;-70
2022/01/11 01:44:13;;;;;;;182.73;26.85;;;3.10;98.90;;;;;;5072493;28;20047;-70
2022/01/11 01:46:40;;;;;;;185.88;25.67;;;3.10;98.90;;;;;;5071705;28;20444;-70
2022/01/11 01:49:07;;;;;;;210.32;25.48;;;3.00;98.90;;;;;;5073592;28;20024;-70
2022/01/11 01:51:33;;;;;;;176.32;25.38;;;3.00;98.80;;;;;;5070373;28;20028;-70
2022/01/11 01:53:58;;;;;;;171.65;26.88;;;3.00;98.80;;;;;;5054586;28;20063;-70
2022/01/11 01:56:25;;;;;;;210.07;26.48;;;3.00;98.90;;;;;;5069812;28;20040;-70
2022/01/11 01:58:51;;;;;;;213.40;26.60;;;3.00;98.90;;;;;;5070267;28;20028;-70
2022/01/11 02:01:17;;;;;;;206.02;25.70;;;3.00;98.90;;;;;;5069480;28;20118;-70
2022/01/11 02:03:46;;;;;;;293.80;27.65;;;3.00;98.90;;;;;;5073279;28;20040;-70
2022/01/11 02:06:17;;;;;;;213.52;23.05;;;3.00;98.90;;;;;;5070595;28;20016;-70
2022/01/11 02:08:45;;;;;;;150.95;21.63;;;2.90;98.90;;;;;;5064651;28;20456;-70
2022/01/11 02:11:14;;;;;;;203.65;21.90;;;2.90;98.90;;;;;;5067403;28;20423;-70
2022/01/11 02:13:40;;;;;;;211.40;23.27;;;2.90;98.90;;;;;;5072342;28;20048;-70
2022/01/11 02:16:05;;;;;;;227.52;23.17;;;2.90;98.90;;;;;;5065643;28;20028;-70
2022/01/11 02:18:31;;;;;;;228.75;23.45;;;2.90;98.90;;;;;;5069205;28;20025;-70
2022/01/11 02:20:58;;;;;;;246.20;23.00;;;2.90;98.90;;;;;;5057122;28;20340;-70
2022/01/11 02:23:26;;;;;;;278.30;25.52;;;2.90;98.90;;;;;;5065933;28;20033;-70
2022/01/11 02:25:52;;;;;;;269.08;24.35;;;2.80;98.90;;;;;;5069681;28;20025;-70
2022/01/11 02:28:20;;;;;;;301.65;24.42;;;2.80;98.90;;;;;;5070832;28;20029;-70
2022/01/11 02:30:46;;;;;;;196.98;22.88;;;2.90;98.90;;;;;;5067347;28;20037;-70
2022/01/11 02:33:30;;;;;;;153.32;20.60;;;2.90;98.90;;;;;;5065898;28;20025;-70
2022/01/11 02:35:56;;;;;;;163.25;21.52;;;2.80;98.90;;;;;;5058005;28;20108;-70
2022/01/11 02:38:21;;;;;;;163.27;21.73;;;2.80;98.90;;;;;;5071351;28;20422;-70
2022/01/11 02:40:47;;;;;;;188.73;21.88;;;2.80;98.90;;;;;;5067450;28;20024;-70
2022/01/11 02:43:12;;;;;;;157.90;22.15;;;2.80;98.90;;;;;;5068120;28;20036;-70
2022/01/11 02:45:38;;;;;;;164.27;22.45;;;2.80;98.90;;;;;;5060929;28;20025;-70
2022/01/11 02:48:04;;;;;;;222.40;23.27;;;2.90;98.90;;;;;;5067384;28;20030;-70
2022/01/11 02:50:29;;;;;;;245.55;23.13;;;2.90;98.90;;;;;;5058619;28;20029;-70
2022/01/11 02:52:55;;;;;;;166.75;23.65;;;2.90;99.00;;;;;;5067286;28;20025;-70
2022/01/11 02:55:20;;;;;;;212.90;23.85;;;2.90;98.90;;;;;;5061685;28;20111;-70
2022/01/11 02:57:46;;;;;;;188.60;23.05;;;2.90;98.90;;;;;;5052217;28;20057;-70
2022/01/11 03:00:15;;;;;;;139.30;22.77;;;2.90;99.00;;;;;;5064369;28;20025;-70
2022/01/11 03:02:40;;;;;;;233.07;25.20;;;2.90;98.90;;;;;;5071306;28;20044;-70
2022/01/11 03:05:08;;;;;;;187.50;24.73;;;2.90;99.00;;;;;;5070287;28;20024;-70
2022/01/11 03:07:34;;;;;;;183.18;23.73;;;3.00;99.00;;;;;;5071014;28;20072;-70
2022/01/11 03:10:04;;;;;;;158.70;24.30;;;2.90;99.00;;;;;;5051773;28;20060;-70
2022/01/11 03:12:30;;;;;;;170.63;24.23;;;3.00;99.00;;;;;;5051119;28;20128;-70
2022/01/11 03:14:56;;;;;;;168.77;24.92;;;2.90;99.00;;;;;;5065478;28;20032;-70
2022/01/11 03:17:22;;;;;;;151.38;24.40;;;2.90;99.00;;;;;;5054401;28;20070;-70
2022/01/11 03:19:48;;;;;;;184.80;24.20;;;2.90;99.00;;;;;;5071782;28;20444;-70
2022/01/11 03:22:13;;;;;;;169.57;24.92;;;3.00;99.00;;;;;;5070888;28;20054;-70
2022/01/11 03:24:39;;;;;;;179.10;25.73;;;2.90;98.90;;;;;;5066341;28;20036;-70
2022/01/11 03:27:07;;;;;;;157.63;24.60;;;2.90;98.90;;;;;;5070373;28;20029;-70
2022/01/11 03:29:34;;;;;;;145.60;25.75;;;2.90;98.90;;;;;;5066893;28;20037;-70
2022/01/11 03:31:59;;;;;;;197.95;26.33;;;2.90;99.00;;;;;;5070868;28;20078;-70
2022/01/11 03:34:25;;;;;;;177.85;25.63;;;2.90;98.90;;;;;;5067242;28;20017;-70
2022/01/11 03:36:50;;;;;;;154.10;26.38;;;2.90;99.00;;;;;;5049937;28;20116;-70
2022/01/11 03:39:16;;;;;;;155.35;25.83;;;2.90;99.00;;;;;;5057551;28;20074;-70
2022/01/11 03:41:41;;;;;;;156.32;25.83;;;2.90;99.00;;;;;;5064184;28;20028;-70
2022/01/11 03:44:07;;;;;;;162.20;26.55;;;3.00;99.00;;;;;;5069853;28;20032;-70
2022/01/11 03:46:32;;;;;;;146.93;24.52;;;2.90;99.00;;;;;;5066045;28;20051;-70
2022/01/11 03:48:58;;;;;;;152.25;24.67;;;3.00;99.00;;;;;;5071407;28;20052;-70
2022/01/11 03:51:23;;;;;;;171.65;25.23;;;3.00;99.00;;;;;;5066107;28;20036;-70
2022/01/11 03:54:43;;;;;;;186.68;26.25;;;3.00;99.00;;;;;;5069291;28;20029;-70
2022/01/11 03:56:38;;;;;;;164.82;25.65;;;3.00;99.00;;;;;;5058241;28;20032;-70
2022/01/11 03:59:06;;;;;;;168.25;23.90;;;3.00;99.00;;;;;;5068086;28;20021;-70
2022/01/11 04:01:36;;;;;;;130.95;23.65;;;2.90;99.00;;;;;;5065202;28;20068;-70
2022/01/11 04:04:03;;;;;;;162.55;24.10;;;3.00;99.00;;;;;;5068754;28;20052;-70
2022/01/11 04:06:28;;;;;;;188.40;24.30;;;3.00;99.00;;;;;;5065207;28;20077;-70
2022/01/11 04:08:54;;;;;;;171.93;23.98;;;2.90;99.00;;;;;;5068696;28;20020;-70
2022/01/11 04:11:19;;;;;;;182.63;25.02;;;3.00;99.00;;;;;;5053640;28;20033;-70
2022/01/11 04:13:46;;;;;;;170.10;24.80;;;3.00;99.00;;;;;;5058364;28;20432;-70
2022/01/11 04:16:12;;;;;;;183.27;25.52;;;2.90;99.00;;;;;;5067535;28;20025;-70
2022/01/11 04:18:38;;;;;;;145.98;24.80;;;3.00;99.00;;;;;;5070667;28;20021;-70
2022/01/11 04:21:04;;;;;;;141.85;24.25;;;2.90;99.00;;;;;;5068373;28;20116;-70
2022/01/11 04:23:30;;;;;;;157.25;23.25;;;2.90;99.00;;;;;;5069777;28;20036;-70
2022/01/11 04:25:56;;;;;;;152.95;24.23;;;3.00;99.00;;;;;;5069120;28;20111;-70
2022/01/11 04:28:23;;;;;;;176.52;23.98;;;3.00;99.00;;;;;;5061353;28;20017;-70
2022/01/11 04:30:49;;;;;;;144.70;22.30;;;3.00;99.00;;;;;;5065246;28;20024;-70
2022/01/11 04:33:15;;;;;;;140.95;22.98;;;2.90;99.00;;;;;;5066832;28;20364;-70
2022/01/11 04:35:43;;;;;;;198.07;23.52;;;3.00;99.00;;;;;;5068812;28;20028;-70
2022/01/11 04:38:08;;;;;;;161.75;23.85;;;3.00;99.00;;;;;;5070159;28;20473;-70
2022/01/11 04:40:34;;;;;;;139.88;22.27;;;3.00;99.00;;;;;;5059200;28;20040;-70
2022/01/11 04:42:59;;;;;;;116.75;23.45;;;3.00;99.00;;;;;;5065937;28;21879;-70
2022/01/11 04:45:25;;;;;;;138.20;23.17;;;2.90;99.00;;;;;;5066209;28;20119;-70
2022/01/11 04:47:56;;;;;;;104.47;21.63;;;3.00;99.00;;;;;;5069200;28;20420;-70
2022/01/11 04:50:26;;;;;;;98.95;21.17;;;2.90;99.00;;;;;;5061117;28;20450;-70
2022/01/11 04:52:51;;;;;;;102.38;21.15;;;2.90;99.00;;;;;;5058391;28;20479;-70
2022/01/11 04:55:17;;;;;;;105.80;20.40;;;2.90;99.00;;;;;;5058302;28;20029;-70
2022/01/11 04:57:43;;;;;;;106.70;21.77;;;2.80;99.00;;;;;;5054951;28;20062;-70
2022/01/11 05:00:10;;;;;;;90.90;21.10;;;2.80;99.00;;;;;;5065795;28;20111;-70
2022/01/11 05:02:35;;;;;;;109.45;22.30;;;2.70;99.00;;;;;;5057771;28;20519;-70
2022/01/11 05:05:01;;;;;;;106.20;21.00;;;2.70;99.00;;;;;;5057375;28;20020;-70
2022/01/11 05:07:26;;;;;;;130.30;23.75;;;2.80;99.00;;;;;;5068880;28;20020;-70
2022/01/11 05:09:53;;;;;;;129.40;21.98;;;2.80;99.00;;;;;;5058426;28;20032;-70
2022/01/11 05:12:19;;;;;;;100.32;22.17;;;2.80;99.00;;;;;;5050165;28;20159;-70
2022/01/11 05:14:44;;;;;;;107.65;23.17;;;2.80;99.00;;;;;;5061574;28;20024;-70
2022/01/11 05:17:10;;;;;;;115.15;22.50;;;2.80;99.00;;;;;;5059064;28;20029;-70
2022/01/11 05:19:35;;;;;;;113.18;22.50;;;2.80;99.00;;;;;;5059247;28;20033;-68
2022/01/11 05:22:01;;;;;;;108.85;22.40;;;2.70;99.00;;;;;;5068262;28;20039;-68
2022/01/11 05:24:26;;;;;;;105.93;20.38;;;2.80;99.00;;;;;;5069235;28;20070;-68
2022/01/11 05:26:53;;;;;;;110.53;22.33;;;2.80;99.00;;;;;;5056394;28;20017;-67
2022/01/11 05:29:18;;;;;;;108.75;22.40;;;2.70;99.00;;;;;;5055625;28;20029;-67
2022/01/11 05:31:44;;;;;;;107.20;20.77;;;2.80;99.00;;;;;;5048955;28;20082;-67
2022/01/11 05:34:10;;;;;;;107.93;22.52;;;2.70;99.00;;;;;;5055105;28;20363;-67
2022/01/11 05:36:35;;;;;;;93.57;22.90;;;2.70;99.00;;;;;;5048705;28;20568;-67
2022/01/11 05:39:01;;;;;;;119.72;24.75;;;2.70;99.00;;;;;;5057528;28;20064;-67
2022/01/11 05:41:26;;;;;;;112.60;22.23;;;2.70;99.00;;;;;;5066717;28;20440;-67
2022/01/11 05:43:52;;;;;;;106.65;23.58;;;2.70;99.00;;;;;;5049960;28;20559;-67
2022/01/11 05:46:17;;;;;;;107.93;22.98;;;2.70;99.00;;;;;;5048262;28;20029;-67
2022/01/11 05:48:45;;;;;;;121.90;23.40;;;2.70;99.00;;;;;;5019208;28;20128;-67
2022/01/11 05:51:11;;;;;;;141.25;23.95;;;2.70;99.00;;;;;;5055382;28;20037;-67
2022/01/11 05:53:37;;;;;;;145.93;24.08;;;2.70;99.00;;;;;;5060196;28;20091;-67
2022/01/11 05:56:03;;;;;;;115.10;22.65;;;2.70;99.00;;;;;;5060492;28;20024;-67
2022/01/11 05:58:28;;;;;;;113.18;23.17;;;2.80;99.00;;;;;;5057924;28;20036;-67
2022/01/11 06:00:54;;;;;;;124.80;23.95;;;2.70;99.00;;;;;;5056305;28;20526;-67
2022/01/11 06:03:19;;;;;;;141.63;24.40;;;2.80;99.00;;;;;;5062272;28;20524;-67
2022/01/11 06:05:45;;;;;;;147.95;23.80;;;2.80;99.00;;;;;;5063553;28;20024;-67
2022/01/11 06:08:16;;;;;;;129.38;23.50;;;2.80;99.00;;;;;;5068536;28;20119;-67
2022/01/11 06:10:42;;;;;;;112.53;22.10;;;2.80;99.00;;;;;;5064341;28;20048;-67
2022/01/11 06:13:07;;;;;;;115.30;22.35;;;2.80;99.00;;;;;;5067224;28;20028;-67
2022/01/11 06:15:34;;;;;;;107.88;22.55;;;2.80;99.00;;;;;;5066238;28;20025;-67
2022/01/11 06:17:59;;;;;;;93.82;22.83;;;2.70;99.00;;;;;;5066978;28;20024;-67
2022/01/11 06:20:25;;;;;;;111.88;23.08;;;2.70;99.00;;;;;;5061693;28;20017;-67
2022/01/11 06:22:51;;;;;;;105.53;21.80;;;2.70;99.00;;;;;;5059928;28;20029;-67
2022/01/11 06:25:16;;;;;;;120.75;21.60;;;2.80;99.00;;;;;;5064716;28;20071;-67
2022/01/11 06:27:42;;;;;;;107.60;23.00;;;2.80;99.00;;;;;;5070805;28;20111;-67
2022/01/11 06:30:09;;;;;;;108.53;21.85;;;2.80;99.00;;;;;;5071317;28;20021;-67
2022/01/11 06:32:36;;;;;;;121.25;22.38;;;2.80;99.00;;;;;;5069841;28;20032;-67
2022/01/11 06:35:03;;;;;;;107.18;23.27;;;2.80;99.00;;;;;;5055870;28;20021;-67
2022/01/11 06:37:29;;;;;;;90.45;22.10;;;2.80;99.00;;;;;;5063431;28;20032;-67
2022/01/11 06:39:55;;;;;;;93.88;21.70;;;2.80;99.00;;;;;;5060088;28;20021;-67
2022/01/11 06:42:20;;;;;;;86.45;21.85;;;2.80;99.00;;;;;;5058237;28;20110;-67
2022/01/11 06:44:46;;;;;;;89.85;20.27;;;2.80;99.00;;;;;;5068472;28;20103;-67
2022/01/11 06:47:12;;;;;;;87.28;20.58;;;2.80;99.00;;;;;;5071189;28;20120;-67
2022/01/11 06:49:37;;;;;;;85.00;20.33;;;2.80;99.00;;;;;;5070043;28;20035;-67
2022/01/11 06:52:04;;;;;;;84.68;20.42;;;2.80;99.00;;;;;;5069290;28;20050;-67
2022/01/11 06:54:29;;;;;;;93.90;22.17;;;2.80;99.00;;;;;;5067938;28;20452;-67
2022/01/11 06:56:55;;;;;;;82.88;21.95;;;2.80;99.00;;;;;;5068978;28;20028;-67
2022/01/11 06:59:21;;;;;;;75.70;19.65;;;2.90;99.00;;;;;;5065950;28;20039;-67
2022/01/11 07:01:46;;;;;;;87.97;20.83;;;2.90;99.00;;;;;;5063886;28;20464;-67
2022/01/11 07:04:12;;;;;;;87.60;22.00;;;2.90;99.00;;;;;;5069666;28;20028;-67
2022/01/11 07:06:37;;;;;;;94.25;19.48;;;2.90;99.00;;;;;;5060794;28;20090;-67
2022/01/11 07:09:03;;;;;;;88.93;21.92;;;2.90;99.00;;;;;;5064163;28;20039;-67
2022/01/11 07:11:29;;;;;;;77.30;19.50;;;2.90;99.00;;;;;;5069418;28;20028;-67
2022/01/11 07:13:54;;;;;;;78.63;20.45;;;2.90;99.00;;;;;;5070342;28;20040;-67
2022/01/11 07:16:20;;;;;;;88.72;19.00;;;2.90;99.00;;;;;;5065676;28;20051;-67
2022/01/11 07:18:47;;;;;;;89.30;20.42;;;2.90;99.00;;;;;;5070398;28;20017;-67
2022/01/11 07:21:12;;;;;;;82.07;19.27;;;2.90;99.00;;;;;;5067813;28;20052;-67
2022/01/11 07:23:38;;;;;;;81.82;19.55;;;2.90;98.90;;;;;;5068528;28;20068;-67
2022/01/11 07:26:07;;;;;;;77.80;19.38;;;2.90;98.90;;;;;;5069993;28;20040;-67
2022/01/11 07:28:33;;;;;;;67.30;18.88;;;2.90;98.90;;;;;;5068458;28;20070;-67
2022/01/11 07:30:58;;;;;;;70.95;20.25;;;2.90;98.90;;;;;;5070434;28;20025;-67
2022/01/11 07:33:24;;;;;;;61.97;18.52;;;2.90;98.90;;;;;;5070185;28;20186;-67
2022/01/11 07:35:49;;;;;;;70.25;20.08;;;2.90;98.90;;;;;;5069640;28;20060;-67
2022/01/11 07:38:15;;;;;;;72.78;19.17;;;2.90;98.90;;;;;;5062704;28;20027;-67
2022/01/11 07:40:40;;;;;;;71.57;19.33;;;2.90;98.90;;;;;;5066285;28;20036;-67
2022/01/11 07:43:06;;;;;;;81.55;19.42;;;2.90;98.90;;;;;;5067011;28;20036;-67
2022/01/11 07:45:32;;;;;;;70.30;19.67;;;2.90;98.90;;;;;;5061959;28;20396;-67
2022/01/11 07:47:57;;;;;;;56.03;18.27;;;2.90;98.80;;;;;;5067630;28;20372;-67
2022/01/11 07:50:23;;;;;;;61.95;18.38;;;2.80;98.80;;;;;;5056592;28;20040;-67
2022/01/11 07:52:48;;;;;;;70.45;20.63;;;2.80;98.70;;;;;;5065549;28;20036;-67
2022/01/11 07:55:15;;;;;;;70.88;19.67;;;2.80;98.80;;;;;;5059191;28;20040;-67
2022/01/11 07:57:40;;;;;;;79.35;20.75;;;2.90;98.80;;;;;;5064456;28;20067;-67
2022/01/11 08:00:07;;;;;;;73.20;20.38;;;2.90;98.80;;;;;;5065300;28;20503;-67
2022/01/11 08:02:33;;;;;;;72.55;20.42;;;2.90;98.80;;;;;;5054426;28;20044;-67
2022/01/11 08:04:58;;;;;;;65.63;20.08;;;2.90;98.80;;;;;;5055633;28;20032;-67
2022/01/11 08:07:24;;;;;;;74.95;19.88;;;2.90;98.70;;;;;;5060875;28;20368;-67
2022/01/11 08:09:50;;;;;;;64.90;19.67;;;2.90;98.70;;;;;;5062986;28;20382;-67
2022/01/11 08:12:16;;;;;;;56.00;19.38;;;3.00;98.70;;;;;;5051611;28;20032;-67
2022/01/11 08:14:41;;;;;;;63.33;20.55;;;2.90;98.70;;;;;;5063955;28;20070;-67
2022/01/11 08:17:07;;;;;;;60.35;20.17;;;2.90;98.60;;;;;;5066333;28;20028;-66
2022/01/11 08:19:33;;;;;;;50.05;18.80;;;2.90;98.60;;;;;;5067192;28;20025;-67
2022/01/11 08:21:58;;;;;;;57.67;19.98;;;2.80;98.50;;;;;;5060409;28;20073;-67
2022/01/11 08:24:24;;;;;;;53.17;18.90;;;2.90;98.50;;;;;;5060594;28;20037;-67
2022/01/11 08:26:53;;;;;;;58.78;18.98;;;2.80;98.40;;;;;;5052870;28;20037;-67
2022/01/11 08:29:20;;;;;;;65.15;20.27;;;2.80;98.40;;;;;;5064445;28;20037;-67
2022/01/11 08:31:46;;;;;;;54.05;18.83;;;2.90;98.40;;;;;;5055462;28;20139;-67
2022/01/11 08:34:14;;;;;;;43.50;18.45;;;2.80;98.40;;;;;;5069629;28;20024;-67
2022/01/11 08:36:41;;;;;;;51.13;17.35;;;2.90;98.30;;;;;;5064364;28;20059;-67
2022/01/11 08:39:08;;;;;;;47.47;17.70;;;2.90;98.30;;;;;;5067950;28;20036;-67
2022/01/11 08:41:34;;;;;;;49.25;18.10;;;2.90;98.20;;;;;;5057521;28;20183;-67
2022/01/11 08:43:59;;;;;;;41.78;17.52;;;2.90;98.10;;;;;;5066877;28;20144;-67
2022/01/11 08:46:25;;;;;;;41.58;15.70;;;2.80;98.00;;;;;;5068138;28;20035;-67
2022/01/11 08:48:50;;;;;;;47.03;16.98;;;2.80;97.80;;;;;;5061623;28;20190;-67
2022/01/11 08:51:16;;;;;;;42.72;16.73;;;2.80;97.90;;;;;;5063123;28;20070;-67
2022/01/11 08:53:42;;;;;;;45.58;17.17;;;2.80;97.90;;;;;;5068077;28;20032;-67
2022/01/11 08:56:08;;;;;;;50.15;16.83;;;2.90;97.90;;;;;;5062817;28;20051;-67
2022/01/11 08:58:34;;;;;;;39.53;16.77;;;2.90;97.90;;;;;;5060996;28;20048;-67
2022/01/11 09:01:00;;;;;;;49.38;18.05;;;2.90;97.80;;;;;;5060480;28;20109;-67
2022/01/11 09:03:25;;;;;;;48.58;17.73;;;3.00;97.70;;;;;;5067341;28;20527;-67
2022/01/11 09:05:52;;;;;;;45.95;17.65;;;3.10;97.80;;;;;;5059223;28;20017;-67
2022/01/11 09:08:18;;;;;;;49.35;16.75;;;3.10;97.60;;;;;;5064627;28;20012;-67
2022/01/11 09:10:43;;;;;;;45.70;17.80;;;3.10;97.60;;;;;;5065498;28;20036;-67
2022/01/11 09:13:09;;;;;;;36.35;15.52;;;3.10;97.50;;;;;;5054653;28;20043;-67
2022/01/11 09:15:34;;;;;;;45.17;16.48;;;3.10;97.50;;;;;;5060567;28;20044;-67
2022/01/11 09:18:01;;;;;;;37.35;16.35;;;3.20;97.40;;;;;;5068639;28;20037;-67
2022/01/11 09:20:26;;;;;;;38.70;15.60;;;3.20;97.30;;;;;;5066091;28;20352;-66
2022/01/11 09:22:53;;;;;;;39.35;16.58;;;3.20;97.10;;;;;;5058541;28;20163;-67
2022/01/11 09:25:19;;;;;;;46.10;14.95;;;3.10;96.90;;;;;;5062117;28;20025;-66
2022/01/11 09:27:45;;;;;;;37.40;15.52;;;3.10;96.90;;;;;;5066390;28;20074;-66
2022/01/11 09:30:13;;;;;;;34.40;15.50;;;3.20;97.00;;;;;;5067709;28;20468;-67
2022/01/11 09:32:41;;;;;;;33.88;14.70;;;3.10;96.60;;;;;;5060172;28;20033;-67
2022/01/11 09:35:09;;;;;;;31.38;14.70;;;3.10;96.30;;;;;;5067666;28;20016;-67
2022/01/11 09:37:35;;;;;;;33.53;14.35;;;3.20;96.30;;;;;;5061333;28;20048;-67
2022/01/11 09:40:01;;;;;;;39.00;14.90;;;3.20;96.20;;;;;;5064421;28;20048;-66
2022/01/11 09:42:27;;;;;;;39.25;14.23;;;3.20;96.10;;;;;;5067132;28;20024;-67
2022/01/11 09:44:53;;;;;;;41.35;14.95;;;3.20;95.80;;;;;;5063249;28;20028;-67
2022/01/11 09:47:18;;;;;;;30.92;15.05;;;3.20;95.80;;;;;;5065148;28;20097;-66
2022/01/11 09:49:45;;;;;;;32.85;13.10;;;3.30;95.70;;;;;;5061471;28;20103;-67
2022/01/11 09:52:12;;;;;;;37.88;14.30;;;3.30;95.70;;;;;;5063748;28;20127;-67
2022/01/11 09:54:42;;;;;;;29.35;13.80;;;3.30;95.70;;;;;;5064811;28;20056;-67
2022/01/11 09:57:09;;;;;;;36.70;13.50;;;3.20;95.30;;;;;;5062857;28;20094;-67
2022/01/11 09:59:35;;;;;;;27.27;13.80;;;3.20;95.10;;;;;;5053438;28;20025;-67
2022/01/11 10:02:01;;;;;;;29.17;14.57;;;3.20;94.90;;;;;;5067929;28;20083;-67
2022/01/11 10:04:32;;;;;;;31.27;14.02;;;3.10;94.70;;;;;;5071568;28;20061;-67
2022/01/11 10:07:07;;;;;;;30.27;13.55;;;3.20;95.00;;;;;;5069245;28;20020;-67
2022/01/11 10:09:45;;;;;;;32.35;14.45;;;3.30;95.20;;;;;;5072326;28;20029;-67
2022/01/11 10:12:12;;;;;;;33.30;13.70;;;3.20;94.90;;;;;;5064153;28;20029;-67
2022/01/11 10:14:43;;;;;;;29.77;13.82;;;3.20;95.20;;;;;;5064174;28;20062;-67
2022/01/11 10:17:15;;;;;;;31.58;12.98;;;3.40;95.30;;;;;;5071064;28;20032;-67
2022/01/11 10:19:42;;;;;;;23.13;12.20;;;3.30;94.60;;;;;;5065676;28;20434;-67
2022/01/11 10:22:11;;;;;;;30.63;14.32;;;3.40;94.80;;;;;;5060927;28;20372;-67
2022/01/11 10:24:42;;;;;;;29.05;13.98;;;3.30;94.80;;;;;;5061081;28;20032;-67
2022/01/11 10:27:30;;;;;;;27.02;13.27;;;3.40;94.80;;;;;;5068953;28;20079;-67
2022/01/11 10:30:17;;;;;;;27.35;13.02;;;3.50;94.70;;;;;;5067017;28;20444;-67
2022/01/11 10:32:48;;;;;;;28.63;12.43;;;3.40;94.60;;;;;;5065271;28;20028;-67
2022/01/11 10:35:17;;;;;;;;;;;3.30;94.40;;;;;;5051057;28;20060;-67
2022/01/11 10:37:46;;;;;;;23.38;12.43;;;3.30;94.60;;;;;;5064433;28;20258;-67
2022/01/11 10:40:24;;;;;;;24.98;12.52;;;3.40;94.60;;;;;;5070604;28;20020;-67
2022/01/11 10:42:54;;;;;;;21.63;11.30;;;3.40;94.70;;;;;;5063225;28;20040;-67
2022/01/11 10:45:20;;;;;;;28.70;11.93;;;3.30;94.50;;;;;;5068293;28;20040;-67
2022/01/11 10:47:50;;;;;;;27.52;12.98;;;3.30;94.40;;;;;;5066965;28;20021;-67
2022/01/11 10:50:28;;;;;;;25.75;12.40;;;3.40;94.60;;;;;;5065272;28;20067;-67
2022/01/11 10:52:56;;;;;;;22.50;11.65;;;3.40;94.40;;;;;;5071668;28;20115;-67
2022/01/11 10:55:23;;;;;;;24.90;11.52;;;3.40;94.30;;;;;;5070004;28;20025;-67
2022/01/11 10:57:54;;;;;;;25.88;11.18;;;3.40;94.50;;;;;;5069075;28;20357;-67
2022/01/11 11:00:31;;;;;;;25.05;12.13;;;3.40;94.20;;;;;;5063599;28;20033;-67
2022/01/11 11:03:08;;;;;;;25.67;12.00;;;3.40;94.10;;;;;;5064637;28;20033;-67
2022/01/11 11:06:00;;;;;;;22.67;11.35;;;3.40;94.10;;;;;;5050882;28;20364;-67
2022/01/11 11:08:33;;;;;;;20.63;11.50;;;3.30;94.00;;;;;;5066458;28;20131;-67
2022/01/11 11:11:04;;;;;;;22.90;11.35;;;3.40;94.10;;;;;;5052564;28;20029;-67
2022/01/11 11:13:43;;;;;;;26.85;11.88;;;3.50;94.20;;;;;;5067939;28;20127;-67
2022/01/11 11:16:23;;;;;;;23.27;11.90;;;3.40;93.70;;;;;;5058592;28;20032;-67
2022/01/11 11:18:56;;;;;;;27.13;11.07;;;3.50;94.10;;;;;;5069716;28;20025;-67
2022/01/11 11:21:22;;;;;;;24.77;11.93;;;3.60;94.30;;;;;;5057629;28;20352;-67
2022/01/11 11:23:51;;;;;;;26.73;12.45;;;3.60;94.10;;;;;;5062133;28;20028;-67
2022/01/11 11:26:18;;;;;;;26.27;11.88;;;3.50;93.80;;;;;;5058049;28;20388;-67
2022/01/11 11:28:43;;;;;;;24.95;11.73;;;3.40;93.80;;;;;;5053088;28;20023;-67
2022/01/11 11:31:09;;;;;;;24.67;12.05;;;3.60;94.10;;;;;;5069607;28;20032;-67
2022/01/11 11:33:41;;;;;;;23.90;10.95;;;3.60;94.00;;;;;;5064301;28;20108;-67
2022/01/11 11:36:10;;;;;;;20.58;11.27;;;3.80;94.20;;;;;;5062100;28;20016;-67
2022/01/11 11:38:40;;;;;;;21.23;10.60;;;3.70;94.00;;;;;;5061037;28;20067;-67
2022/01/11 11:41:06;;;;;;;26.63;11.77;;;3.70;93.80;;;;;;5058808;28;20515;-67
2022/01/11 11:43:33;;;;;;;29.88;11.90;;;3.60;93.60;;;;;;5057033;28;20037;-67
2022/01/11 11:45:58;;;;;;;22.08;11.48;;;3.70;93.80;;;;;;5057464;28;20017;-67
2022/01/11 11:48:27;;;;;;;23.42;10.77;;;3.60;93.50;;;;;;5060783;28;20035;-67
2022/01/11 11:50:55;;;;;;;28.63;12.00;;;3.70;93.70;;;;;;5056208;28;20070;-67
2022/01/11 11:53:40;;;;;;;22.38;9.80;;;3.70;93.90;;;;;;5057661;28;20048;-67
2022/01/11 11:56:15;;;;;;;23.00;11.43;;;3.60;93.70;;;;;;5057579;28;20110;-67
2022/01/11 11:58:46;;;;;;;24.10;11.45;;;3.80;93.90;;;;;;5057082;28;20348;-67
2022/01/11 12:01:33;;;;;;;21.63;11.25;;;3.70;93.60;;;;;;5058042;28;20139;-67
2022/01/11 12:03:59;;;;;;;20.60;11.15;;;3.60;93.50;;;;;;5058751;28;20036;-67
2022/01/11 12:06:28;;;;;;;18.50;11.00;;;3.50;93.20;;;;;;5056732;28;20031;-67
2022/01/11 12:09:05;;;;;;;20.25;11.00;;;3.50;93.50;;;;;;5059741;28;20380;-67
2022/01/11 12:11:45;;;;;;;24.10;10.68;;;3.50;93.30;;;;;;5054709;28;20024;-67
2022/01/11 12:14:32;;;;;;;27.88;12.02;;;3.60;93.30;;;;;;5056220;28;20460;-67
2022/01/11 12:17:23;;;;;;;20.77;11.07;;;3.90;93.10;;;;;;5049253;28;20032;-67
2022/01/11 12:19:53;;;;;;;24.80;11.70;;;3.90;92.90;;;;;;5056861;28;20029;-67
2022/01/11 12:22:24;;;;;;;24.73;11.35;;;3.80;92.90;;;;;;5058103;28;20059;-67
2022/01/11 12:24:52;;;;;;;19.05;10.30;;;4.10;93.10;;;;;;5061611;28;20108;-67
2022/01/11 12:27:22;;;;;;;28.20;11.18;;;4.10;91.80;;;;;;5053935;28;20462;-67
2022/01/11 12:30:16;;;;;;;19.67;10.63;;;4.20;92.10;;;;;;5057872;28;20032;-67
2022/01/11 12:33:09;;;;;;;20.30;10.18;;;4.20;92.10;;;;;;5054325;28;20069;-67
2022/01/11 12:36:02;;;;;;;23.30;10.27;;;4.30;91.70;;;;;;5059764;28;20025;-67